LOWI/INN METAR and TAF weather

Enter ICAO airport designator
Station Type Date Time Source
LOWI METAR 2020/08/11 00:50 UTC NOAA

LOWI 110050Z AUTO 32004KT 9999 NSC 17/16 Q1020


Station Type Date Time Source
LOWI Decoded METAR 2020/08/11 00:50 UTC NOAA

Innsbruck-Flughafen, Austria (LOWI) 47-16N 011-21E 593M
Aug 10, 2020 - 08:50 PM EDT / 2020.08.11 0050 UTC
Wind: from the NW (320 degrees) at 5 MPH (4 KT):0
Visibility: greater than 7 mile(s):0
Temperature: 62 F (17 C)
Dew Point: 60 F (16 C)
Relative Humidity: 93%
Pressure (altimeter): 30.12 in. Hg (1020 hPa)
ob: LOWI 110050Z AUTO 32004KT 9999 NSC 17/16 Q1020
cycle: 1

Station Type Date Time Source
LOWI TAF 2020/08/10 18:21 UTC NOAA

TAF LOWI 101715Z 1018/1118 08008KT 9999 FEW070 TX28/1113Z TN16/1104Z PROB40
TEMPO 1018/1020 08015G25KT TS FEW070CB
BECMG 1018/1020 VRB02KT
BECMG 1110/1112 08008KT SCT070 FEW070CB
TEMPO 1114/1118 29015G25KT TSRA

Example: see airport list